createdAt,value
2023-05-05T00:00:27.409Z,62.66
2023-05-05T00:01:31.227Z,62.79
2023-05-05T00:02:32.924Z,62.80
2023-05-05T00:03:38.191Z,63.13
2023-05-05T00:04:40.138Z,63.26
2023-05-05T00:05:42.266Z,63.16
2023-05-05T00:06:43.839Z,63.24
2023-05-05T00:07:45.444Z,63.19
2023-05-05T00:08:47.466Z,63.08
2023-05-05T00:09:49.096Z,63.17
2023-05-05T00:10:52.534Z,63.16
2023-05-05T00:11:54.205Z,62.88
2023-05-05T00:12:55.847Z,63.21
2023-05-05T00:13:57.599Z,63.28
2023-05-05T00:14:59.318Z,63.60
2023-05-05T00:16:01.034Z,63.61
2023-05-05T00:17:04.138Z,63.97
2023-05-05T00:18:06.050Z,64.06
2023-05-05T00:19:07.757Z,64.07
2023-05-05T00:20:09.969Z,63.96
2023-05-05T00:21:11.603Z,63.98
2023-05-05T00:22:13.208Z,63.78
2023-05-05T00:23:16.564Z,63.83
2023-05-05T00:24:18.564Z,63.92
2023-05-05T00:25:20.338Z,64.36
2023-05-05T00:26:22.041Z,63.79
2023-05-05T00:27:25.434Z,64.18
2023-05-05T00:28:27.571Z,64.02
2023-05-05T00:29:30.052Z,64.09
2023-05-05T00:30:31.861Z,64.09
2023-05-05T00:31:34.042Z,64.22
2023-05-05T00:32:35.747Z,64.20
2023-05-05T00:33:37.401Z,64.56
2023-05-05T00:34:39.042Z,64.56
2023-05-05T00:35:41.247Z,64.60
2023-05-05T00:36:43.188Z,64.56
2023-05-05T00:37:45.055Z,64.77
2023-05-05T00:38:47.050Z,64.82
2023-05-05T00:39:48.821Z,64.89
2023-05-05T00:40:50.826Z,64.69
2023-05-05T00:41:55.687Z,64.67
2023-05-05T00:42:59.591Z,65.22
2023-05-05T00:44:01.850Z,65.13
2023-05-05T00:45:04.248Z,64.92
2023-05-05T00:46:26.544Z,65.16
2023-05-05T00:47:28.573Z,65.34
2023-05-05T00:48:31.317Z,65.47
2023-05-05T00:49:36.640Z,65.57
2023-05-05T00:50:38.930Z,65.56
2023-05-05T00:51:40.532Z,65.74
2023-05-05T00:52:42.936Z,65.66
2023-05-05T00:53:45.217Z,65.79
2023-05-05T00:54:47.142Z,65.92
2023-05-05T00:55:49.642Z,66.05
2023-05-05T00:56:51.402Z,65.99
2023-05-05T00:57:53.916Z,65.73
2023-05-05T00:58:56.366Z,66.30
2023-05-05T00:59:59.966Z,66.26
2023-05-05T01:01:02.002Z,66.62
2023-05-05T01:02:04.413Z,66.30
2023-05-05T01:03:06.563Z,66.21
2023-05-05T01:04:09.843Z,66.42
2023-05-05T01:05:14.479Z,66.08
2023-05-05T01:06:57.371Z,66.74
2023-05-05T01:08:29.393Z,66.59
2023-05-05T01:09:48.234Z,66.62
2023-05-05T01:11:03.274Z,66.91
2023-05-05T01:12:32.837Z,67.24
2023-05-05T01:14:16.966Z,67.47
2023-05-05T01:15:26.616Z,67.22
2023-05-05T01:16:33.472Z,66.91
2023-05-05T01:18:05.098Z,67.76
2023-05-05T01:19:28.235Z,67.96
2023-05-05T01:20:45.386Z,68.09
2023-05-05T01:22:00.950Z,68.12
2023-05-05T01:23:06.817Z,68.13
2023-05-05T01:24:40.970Z,68.83
2023-05-05T01:26:09.054Z,68.78
2023-05-05T01:27:16.560Z,68.83
2023-05-05T01:29:06.402Z,69.11
2023-05-05T01:30:20.454Z,68.69
2023-05-05T01:31:36.278Z,68.69
2023-05-05T01:32:49.862Z,69.06
2023-05-05T01:34:04.086Z,69.14
2023-05-05T01:35:36.284Z,69.95
2023-05-05T01:36:45.197Z,69.00
2023-05-05T01:37:46.724Z,68.77
2023-05-05T01:38:55.710Z,69.34
2023-05-05T01:40:04.793Z,69.99
2023-05-05T01:41:17.629Z,70.13
2023-05-05T01:42:22.651Z,70.81
2023-05-05T01:43:29.903Z,70.13
2023-05-05T01:44:36.994Z,70.99
2023-05-05T01:45:42.458Z,70.65
2023-05-05T01:46:44.302Z,71.15
2023-05-05T01:47:47.841Z,71.54
2023-05-05T01:48:52.578Z,71.25
2023-05-05T01:49:58.781Z,71.59
2023-05-05T01:51:08.103Z,71.70
2023-05-05T01:52:11.222Z,71.45
2023-05-05T01:53:17.660Z,72.15
2023-05-05T01:54:20.438Z,72.09
2023-05-05T01:55:29.091Z,71.94
2023-05-05T01:56:32.811Z,71.63
2023-05-05T01:57:35.972Z,71.98
2023-05-05T01:58:39.128Z,72.52
2023-05-05T01:59:40.990Z,72.59
2023-05-05T02:00:44.091Z,73.20
2023-05-05T02:01:50.646Z,72.05
2023-05-05T02:02:58.627Z,72.75
2023-05-05T02:04:03.699Z,72.41
2023-05-05T02:05:07.076Z,73.31
2023-05-05T02:06:11.135Z,72.73
2023-05-05T02:07:14.034Z,71.92
2023-05-05T02:08:16.925Z,72.98
2023-05-05T02:09:20.262Z,72.28
2023-05-05T02:10:22.016Z,72.89
2023-05-05T02:11:23.968Z,73.15
2023-05-05T02:12:31.029Z,73.24
2023-05-05T02:13:33.636Z,73.61
2023-05-05T02:14:36.957Z,73.63
2023-05-05T02:15:40.347Z,73.20
2023-05-05T02:16:42.905Z,74.23
2023-05-05T02:17:46.445Z,74.49
2023-05-05T02:18:49.901Z,74.58
2023-05-05T02:19:53.157Z,74.62
2023-05-05T02:20:55.471Z,74.92
2023-05-05T02:21:57.924Z,75.72
2023-05-05T02:23:05.659Z,75.54
2023-05-05T02:24:10.264Z,74.79
2023-05-05T02:25:12.013Z,74.58
2023-05-05T02:26:16.776Z,74.55
2023-05-05T02:27:21.806Z,75.72
2023-05-05T02:28:33.454Z,76.00
2023-05-05T02:29:40.639Z,76.46
2023-05-05T02:30:43.812Z,75.66
2023-05-05T02:31:49.928Z,75.21
2023-05-05T02:33:06.750Z,77.17
2023-05-05T02:34:09.571Z,76.47
2023-05-05T02:35:15.579Z,77.35
2023-05-05T02:36:25.907Z,76.73
2023-05-05T02:37:34.812Z,78.11
2023-05-05T02:38:41.850Z,77.21
2023-05-05T02:39:59.242Z,78.24
2023-05-05T02:41:04.932Z,77.72
2023-05-05T02:42:09.292Z,78.03
2023-05-05T02:43:15.558Z,78.89
2023-05-05T02:44:20.117Z,78.34
2023-05-05T02:45:26.818Z,78.56
2023-05-05T02:46:32.704Z,77.80
2023-05-05T02:47:38.652Z,78.28
2023-05-05T02:48:43.457Z,79.45
2023-05-05T02:49:48.472Z,78.59
2023-05-05T02:50:50.325Z,78.41
2023-05-05T02:52:01.571Z,79.93
2023-05-05T02:53:09.278Z,78.41
2023-05-05T02:54:11.274Z,79.54
2023-05-05T02:55:13.952Z,78.80
2023-05-05T02:56:47.681Z,79.64
2023-05-05T02:58:24.961Z,80.09
2023-05-05T02:59:30.939Z,80.70
2023-05-05T03:00:51.136Z,79.76
2023-05-05T03:01:56.943Z,80.06
2023-05-05T03:03:06.811Z,80.08
2023-05-05T03:04:16.283Z,80.10
2023-05-05T03:05:28.329Z,79.48
2023-05-05T03:06:36.899Z,80.89
2023-05-05T03:07:43.090Z,81.17
2023-05-05T03:09:03.301Z,81.68
2023-05-05T03:10:18.973Z,81.21
2023-05-05T03:11:37.886Z,81.30
2023-05-05T03:12:49.633Z,81.08
2023-05-05T03:14:07.098Z,82.38
2023-05-05T03:15:10.480Z,82.17
2023-05-05T03:16:15.236Z,81.58
2023-05-05T03:17:18.839Z,81.61
2023-05-05T03:18:24.702Z,82.32
2023-05-05T03:19:36.521Z,81.98
2023-05-05T03:20:40.695Z,83.01
2023-05-05T03:21:45.326Z,83.46
2023-05-05T03:22:47.892Z,83.53
2023-05-05T03:23:50.166Z,83.01
2023-05-05T03:24:55.129Z,82.19
2023-05-05T03:25:59.128Z,83.30
2023-05-05T03:27:10.475Z,83.75
2023-05-05T03:28:15.624Z,83.28
2023-05-05T03:29:17.962Z,83.20
2023-05-05T03:30:20.386Z,83.03
2023-05-05T03:31:25.448Z,83.63
2023-05-05T03:32:31.417Z,85.02
2023-05-05T03:33:33.228Z,84.85
2023-05-05T03:34:37.452Z,83.60
2023-05-05T03:35:40.420Z,84.15
2023-05-05T03:36:45.002Z,85.37
2023-05-05T03:37:49.743Z,85.78
2023-05-05T03:38:53.189Z,84.36
2023-05-05T03:39:56.594Z,85.50
2023-05-05T03:41:02.661Z,84.84
2023-05-05T03:42:07.697Z,84.24
2023-05-05T03:43:10.626Z,85.59
2023-05-05T03:44:13.693Z,84.52
2023-05-05T03:45:16.437Z,84.99
2023-05-05T03:46:18.655Z,85.49
2023-05-05T03:47:20.648Z,84.66
2023-05-05T03:48:22.674Z,84.52
2023-05-05T03:49:25.779Z,85.42
2023-05-05T03:50:28.118Z,85.71
2023-05-05T03:51:31.543Z,85.76
2023-05-05T03:52:34.687Z,86.20
2023-05-05T03:53:36.667Z,85.67
2023-05-05T03:54:42.518Z,86.48
2023-05-05T03:55:44.935Z,86.34
2023-05-05T03:56:46.783Z,86.04
2023-05-05T03:57:48.652Z,85.91
2023-05-05T03:58:50.228Z,86.28
2023-05-05T03:59:52.900Z,85.55
2023-05-05T04:00:55.055Z,86.37
2023-05-05T04:01:57.588Z,85.62
2023-05-05T04:02:59.849Z,85.75
2023-05-05T04:04:02.718Z,85.73
2023-05-05T04:05:04.869Z,85.53
2023-05-05T04:06:06.643Z,86.49
2023-05-05T04:07:09.173Z,86.16
2023-05-05T04:08:10.978Z,85.61
2023-05-05T04:09:15.432Z,86.54
2023-05-05T04:10:18.608Z,86.68
2023-05-05T04:11:24.098Z,86.38
2023-05-05T04:12:29.054Z,87.24
2023-05-05T04:13:31.825Z,86.52
2023-05-05T04:14:33.948Z,86.80
2023-05-05T04:15:35.793Z,86.98
2023-05-05T04:16:37.890Z,87.11
2023-05-05T04:17:39.870Z,86.31
2023-05-05T04:18:41.779Z,86.04
2023-05-05T04:19:44.187Z,86.05
2023-05-05T04:20:46.670Z,87.06
2023-05-05T04:21:49.533Z,86.42
2023-05-05T04:22:52.725Z,86.12
2023-05-05T04:23:55.391Z,86.84
2023-05-05T04:24:57.756Z,87.38
2023-05-05T04:25:59.819Z,87.09
2023-05-05T04:27:02.473Z,87.11
2023-05-05T04:28:05.175Z,87.61
2023-05-05T04:29:09.524Z,87.49
2023-05-05T04:30:11.808Z,86.62
2023-05-05T04:31:15.569Z,87.68
2023-05-05T04:32:18.591Z,86.91
2023-05-05T04:33:20.249Z,86.90
2023-05-05T04:34:23.846Z,86.74
2023-05-05T04:35:26.492Z,86.58
2023-05-05T04:36:28.558Z,87.00
2023-05-05T04:37:30.320Z,86.72
2023-05-05T04:38:33.072Z,86.66
2023-05-05T04:39:35.507Z,86.53
2023-05-05T04:40:42.013Z,86.31
2023-05-05T04:41:45.145Z,86.54
2023-05-05T04:42:46.777Z,87.59
2023-05-05T04:43:48.720Z,87.41
2023-05-05T04:44:50.620Z,86.46
2023-05-05T04:45:56.038Z,86.79
2023-05-05T04:47:01.604Z,87.39
2023-05-05T04:48:05.185Z,87.17
2023-05-05T04:49:07.029Z,87.46
2023-05-05T04:50:10.421Z,87.82
2023-05-05T04:51:13.500Z,87.66
2023-05-05T04:52:15.675Z,86.79
2023-05-05T04:53:17.959Z,86.69
2023-05-05T04:54:19.854Z,86.22
2023-05-05T04:55:21.513Z,86.46
2023-05-05T04:56:23.480Z,86.86
2023-05-05T04:57:25.285Z,86.97
2023-05-05T04:58:28.575Z,87.19
2023-05-05T04:59:30.502Z,87.10
2023-05-05T05:00:32.681Z,87.46
2023-05-05T05:01:36.224Z,87.44
2023-05-05T05:02:39.749Z,86.87
2023-05-05T05:03:41.683Z,86.85
2023-05-05T05:04:43.396Z,86.46
2023-05-05T05:05:46.251Z,86.79
2023-05-05T05:06:48.546Z,87.52
2023-05-05T05:07:50.676Z,86.71
2023-05-05T05:08:52.962Z,86.60
2023-05-05T05:09:54.808Z,86.57
2023-05-05T05:10:56.559Z,86.29
2023-05-05T05:12:03.022Z,86.48
2023-05-05T05:13:04.879Z,86.87
2023-05-05T05:14:06.883Z,85.94
2023-05-05T05:15:09.432Z,86.44
2023-05-05T05:16:11.597Z,86.31
2023-05-05T05:17:13.674Z,85.99
2023-05-05T05:18:16.047Z,86.08
2023-05-05T05:19:17.854Z,86.08
2023-05-05T05:20:19.990Z,85.72
2023-05-05T05:21:22.511Z,85.85
2023-05-05T05:22:24.631Z,85.58
2023-05-05T05:23:26.998Z,85.06
2023-05-05T05:24:28.798Z,85.66
2023-05-05T05:25:30.507Z,85.83
2023-05-05T05:26:32.710Z,85.44
2023-05-05T05:27:34.683Z,85.22
2023-05-05T05:28:36.398Z,85.30
2023-05-05T05:29:38.598Z,85.10
2023-05-05T05:30:40.552Z,84.92
2023-05-05T05:31:44.052Z,84.66
2023-05-05T05:32:45.701Z,84.52
2023-05-05T05:33:47.575Z,84.36
2023-05-05T05:34:50.028Z,83.82
2023-05-05T05:35:51.860Z,83.88
2023-05-05T05:36:55.386Z,83.68
2023-05-05T05:37:57.501Z,83.29
2023-05-05T05:38:59.928Z,82.71
2023-05-05T05:40:05.071Z,82.48
2023-05-05T05:41:08.444Z,82.30
2023-05-05T05:42:11.964Z,82.38
2023-05-05T05:43:14.643Z,82.22
2023-05-05T05:44:16.292Z,81.86
2023-05-05T05:45:18.218Z,81.74
2023-05-05T05:46:19.974Z,81.61
2023-05-05T05:47:21.892Z,81.36
2023-05-05T05:48:28.524Z,81.18
2023-05-05T05:49:31.489Z,81.19
2023-05-05T05:50:33.252Z,80.87
2023-05-05T05:51:34.887Z,80.66
2023-05-05T05:52:36.857Z,80.95
2023-05-05T05:53:40.465Z,80.96
2023-05-05T05:54:43.456Z,80.72
2023-05-05T05:55:46.578Z,80.83
2023-05-05T05:56:49.005Z,80.97
2023-05-05T05:57:51.186Z,81.14
2023-05-05T05:58:52.994Z,81.05
2023-05-05T05:59:55.105Z,80.85
2023-05-05T06:00:59.137Z,81.08
2023-05-05T06:02:01.638Z,80.70
2023-05-05T06:03:03.817Z,80.83
2023-05-05T06:04:09.092Z,80.85
2023-05-05T06:05:13.086Z,81.29
2023-05-05T06:06:16.499Z,81.04
2023-05-05T06:07:18.990Z,80.87
2023-05-05T06:08:23.053Z,80.91
2023-05-05T06:09:27.862Z,80.64
2023-05-05T06:10:30.307Z,81.12
2023-05-05T06:11:37.179Z,80.85
2023-05-05T06:12:38.901Z,81.02
2023-05-05T06:13:40.494Z,81.06
2023-05-05T06:14:42.266Z,81.09
2023-05-05T06:15:43.887Z,80.67
2023-05-05T06:16:47.846Z,80.55
2023-05-05T06:17:54.387Z,80.76
2023-05-05T06:18:57.217Z,80.54
2023-05-05T06:19:59.502Z,80.59
2023-05-05T06:21:02.051Z,80.36
2023-05-05T06:22:05.908Z,79.85
2023-05-05T06:23:08.032Z,79.75
2023-05-05T06:24:14.796Z,79.92
2023-05-05T06:25:17.259Z,79.78
2023-05-05T06:26:20.027Z,79.58
2023-05-05T06:27:21.658Z,79.92
2023-05-05T06:28:23.446Z,79.55
2023-05-05T06:29:25.721Z,79.35
2023-05-05T06:30:27.487Z,79.17
2023-05-05T06:31:29.169Z,78.92
2023-05-05T06:32:30.872Z,78.68
2023-05-05T06:33:32.593Z,78.34
2023-05-05T06:34:34.805Z,78.50
2023-05-05T06:35:36.569Z,77.88
2023-05-05T06:36:38.536Z,77.64
2023-05-05T06:37:40.303Z,77.50
2023-05-05T06:38:41.937Z,77.70
2023-05-05T06:39:43.586Z,77.54
2023-05-05T06:40:48.606Z,77.85
2023-05-05T06:41:50.191Z,77.29
2023-05-05T06:42:51.806Z,77.28
2023-05-05T06:43:58.594Z,77.02
2023-05-05T06:45:00.478Z,76.74
2023-05-05T06:46:02.051Z,76.81
2023-05-05T06:47:03.938Z,76.58
2023-05-05T06:48:05.812Z,76.31
2023-05-05T06:49:07.519Z,76.14
2023-05-05T06:50:09.658Z,76.25
2023-05-05T06:51:11.613Z,76.08
2023-05-05T06:52:13.330Z,76.48
2023-05-05T06:53:14.964Z,76.40
2023-05-05T06:54:16.828Z,75.83
2023-05-05T06:55:18.727Z,75.95
2023-05-05T06:56:21.032Z,75.62
2023-05-05T06:57:23.017Z,75.80
2023-05-05T06:58:25.180Z,75.66
2023-05-05T06:59:26.902Z,75.71
2023-05-05T07:00:28.603Z,75.42
2023-05-05T07:01:30.214Z,75.45
2023-05-05T07:02:31.906Z,75.24
2023-05-05T07:03:34.033Z,74.71
2023-05-05T07:04:36.531Z,74.33
2023-05-05T07:05:38.768Z,74.11
2023-05-05T07:06:40.412Z,74.09
2023-05-05T07:07:55.211Z,73.64
2023-05-05T07:08:57.867Z,73.53
2023-05-05T07:10:00.128Z,73.75
2023-05-05T07:11:01.859Z,73.80
2023-05-05T07:12:04.010Z,73.94
2023-05-05T07:13:07.451Z,73.87
2023-05-05T07:14:09.366Z,73.50
2023-05-05T07:15:23.247Z,73.61
2023-05-05T07:16:28.805Z,73.70
2023-05-05T07:17:30.581Z,73.50
2023-05-05T07:18:33.541Z,73.76
2023-05-05T07:19:35.390Z,73.44
2023-05-05T07:20:36.960Z,72.90
2023-05-05T07:21:39.724Z,73.43
2023-05-05T07:22:41.577Z,73.06
2023-05-05T07:23:43.178Z,73.30
2023-05-05T07:24:45.022Z,73.44
2023-05-05T07:25:46.681Z,73.45
2023-05-05T07:26:48.440Z,73.39
2023-05-05T07:27:50.268Z,72.91
2023-05-05T07:28:58.936Z,72.48
2023-05-05T07:30:01.345Z,72.44
2023-05-05T07:31:03.150Z,72.58
2023-05-05T07:32:05.299Z,72.45
2023-05-05T07:33:07.002Z,72.57
2023-05-05T07:34:08.748Z,72.60
2023-05-05T07:35:10.401Z,72.44
2023-05-05T07:36:12.055Z,72.23
2023-05-05T07:37:13.613Z,72.14
2023-05-05T07:38:15.211Z,71.73
2023-05-05T07:39:18.538Z,71.39
2023-05-05T07:40:20.543Z,71.28
2023-05-05T07:41:22.287Z,71.73
2023-05-05T07:42:24.034Z,71.34
2023-05-05T07:43:25.673Z,71.49
2023-05-05T07:44:27.669Z,71.52
2023-05-05T07:45:29.280Z,71.78
2023-05-05T07:46:30.893Z,71.70
2023-05-05T07:47:32.880Z,71.84
2023-05-05T07:48:34.740Z,71.68
2023-05-05T07:49:36.692Z,70.96
2023-05-05T07:50:38.772Z,71.23
2023-05-05T07:51:40.360Z,71.26
2023-05-05T07:52:47.903Z,70.69
2023-05-05T07:53:51.500Z,70.57
2023-05-05T07:54:53.181Z,70.71
2023-05-05T07:55:54.918Z,70.80
2023-05-05T07:56:57.472Z,69.64
2023-05-05T07:57:59.091Z,70.15
2023-05-05T07:59:00.991Z,70.42
2023-05-05T08:00:03.274Z,70.46
2023-05-05T08:01:13.653Z,70.37
2023-05-05T08:02:15.669Z,69.88
2023-05-05T08:03:20.217Z,70.00
2023-05-05T08:04:21.926Z,70.07
2023-05-05T08:05:23.762Z,69.66
2023-05-05T08:06:25.571Z,69.65
2023-05-05T08:07:27.363Z,69.53
2023-05-05T08:08:28.915Z,70.18
2023-05-05T08:09:30.479Z,69.69
2023-05-05T08:10:32.018Z,69.66
2023-05-05T08:11:33.636Z,69.98
2023-05-05T08:12:35.987Z,69.67
2023-05-05T08:13:39.202Z,69.31
2023-05-05T08:14:42.578Z,69.86
2023-05-05T08:15:45.148Z,69.36
2023-05-05T08:16:46.785Z,69.68
2023-05-05T08:17:50.108Z,69.28
2023-05-05T08:18:52.478Z,69.30
2023-05-05T08:19:54.313Z,69.27
2023-05-05T08:20:56.090Z,68.94
2023-05-05T08:22:00.062Z,68.67
2023-05-05T08:23:03.143Z,67.48
2023-05-05T08:24:04.801Z,68.18
2023-05-05T08:25:07.120Z,68.00
2023-05-05T08:26:11.608Z,68.48
2023-05-05T08:27:14.080Z,68.54
2023-05-05T08:28:15.844Z,68.16
2023-05-05T08:29:17.629Z,68.21
2023-05-05T08:30:21.734Z,67.81
2023-05-05T08:31:23.371Z,67.45
2023-05-05T08:32:25.539Z,67.62
2023-05-05T08:33:28.663Z,67.87
2023-05-05T08:34:30.464Z,67.83
2023-05-05T08:35:32.046Z,67.23
2023-05-05T08:36:33.721Z,67.63
2023-05-05T08:37:35.366Z,67.86
2023-05-05T08:38:36.949Z,67.57
2023-05-05T08:39:38.862Z,67.35
2023-05-05T08:40:41.320Z,67.43
2023-05-05T08:41:43.156Z,67.22
2023-05-05T08:42:45.696Z,66.75
2023-05-05T08:43:48.120Z,66.64
2023-05-05T08:44:49.926Z,66.95
2023-05-05T08:45:51.929Z,67.13
2023-05-05T08:46:55.152Z,66.97
2023-05-05T08:47:58.599Z,67.12
2023-05-05T08:49:03.719Z,67.45
2023-05-05T08:50:05.965Z,66.76
2023-05-05T08:51:21.660Z,66.88
2023-05-05T08:52:24.294Z,66.52
2023-05-05T08:53:43.720Z,66.00
2023-05-05T08:54:51.768Z,66.37
2023-05-05T08:56:00.701Z,65.74
2023-05-05T08:57:06.418Z,66.17
2023-05-05T08:58:08.950Z,67.13
2023-05-05T08:59:11.962Z,66.81
2023-05-05T09:00:20.604Z,66.86
2023-05-05T09:01:22.790Z,66.56
2023-05-05T09:02:28.844Z,65.22
2023-05-05T09:03:32.502Z,65.35
2023-05-05T09:04:37.825Z,66.46
2023-05-05T09:05:43.478Z,66.05
2023-05-05T09:06:45.215Z,65.57
2023-05-05T09:07:47.528Z,65.47
2023-05-05T09:08:49.736Z,65.56
2023-05-05T09:09:51.548Z,66.31
2023-05-05T09:10:55.194Z,65.42
2023-05-05T09:11:59.027Z,64.96
2023-05-05T09:13:00.777Z,64.97
2023-05-05T09:14:02.831Z,64.64
2023-05-05T09:15:05.022Z,65.35
2023-05-05T09:16:07.652Z,65.77
2023-05-05T09:17:24.371Z,65.50
2023-05-05T09:18:26.691Z,63.94
2023-05-05T09:19:28.693Z,64.50
2023-05-05T09:20:35.536Z,64.72
2023-05-05T09:21:46.447Z,65.02
2023-05-05T09:22:48.630Z,64.37
2023-05-05T09:24:11.294Z,63.52
2023-05-05T09:25:15.012Z,64.63
2023-05-05T09:26:17.020Z,63.88
2023-05-05T09:27:25.665Z,63.57
2023-05-05T09:28:28.054Z,64.05
2023-05-05T09:29:30.213Z,64.74
2023-05-05T09:30:31.820Z,63.83
2023-05-05T09:31:34.930Z,63.32
2023-05-05T09:32:50.856Z,62.73
2023-05-05T09:33:52.844Z,63.44
2023-05-05T09:34:59.710Z,62.97
2023-05-05T09:36:01.704Z,64.08
2023-05-05T09:37:03.700Z,63.24
2023-05-05T09:38:12.045Z,62.73
2023-05-05T09:39:18.257Z,62.80
2023-05-05T09:40:21.638Z,62.74
2023-05-05T09:41:43.848Z,63.38
2023-05-05T09:42:45.764Z,63.58
2023-05-05T09:43:52.072Z,63.12
2023-05-05T09:44:54.467Z,63.52
2023-05-05T09:46:07.554Z,62.88
2023-05-05T09:47:18.087Z,62.16
2023-05-05T09:48:32.268Z,63.08
2023-05-05T09:49:36.254Z,63.14
2023-05-05T09:50:44.525Z,62.70
2023-05-05T09:51:47.248Z,63.41
2023-05-05T09:53:06.881Z,63.14
2023-05-05T09:54:08.628Z,63.86
2023-05-05T09:55:19.764Z,62.49
2023-05-05T09:56:21.615Z,62.77
2023-05-05T09:57:28.532Z,62.77
2023-05-05T09:58:31.062Z,62.85
2023-05-05T09:59:33.083Z,63.03
2023-05-05T10:00:39.127Z,63.24
2023-05-05T10:01:43.526Z,62.89
2023-05-05T10:02:45.521Z,63.26
2023-05-05T10:03:52.316Z,63.67
2023-05-05T10:05:05.034Z,63.17
2023-05-05T10:06:07.899Z,62.68
2023-05-05T10:07:23.078Z,61.61
2023-05-05T10:08:31.741Z,61.44
2023-05-05T10:09:33.587Z,62.30
2023-05-05T10:10:35.397Z,62.58
2023-05-05T10:11:37.187Z,62.12
2023-05-05T10:12:39.889Z,61.69
2023-05-05T10:13:42.065Z,61.18
2023-05-05T10:14:44.032Z,61.15
2023-05-05T10:15:47.482Z,62.06
2023-05-05T10:16:55.253Z,61.60
2023-05-05T10:18:07.371Z,62.57
2023-05-05T10:19:15.079Z,62.37
2023-05-05T10:20:18.716Z,61.92
2023-05-05T10:21:21.750Z,62.22
2023-05-05T10:22:24.982Z,61.98
2023-05-05T10:23:47.814Z,61.64
2023-05-05T10:24:57.836Z,61.68
2023-05-05T10:26:05.438Z,62.57
2023-05-05T10:27:17.962Z,61.98
2023-05-05T10:28:41.966Z,61.74
2023-05-05T10:30:02.704Z,61.58
2023-05-05T10:31:23.934Z,61.86
2023-05-05T10:33:09.081Z,61.35
2023-05-05T10:34:19.005Z,62.13
2023-05-05T10:35:22.462Z,61.85
2023-05-05T10:36:25.620Z,62.38
2023-05-05T10:37:28.735Z,62.05
2023-05-05T10:38:31.536Z,62.05
2023-05-05T10:39:37.474Z,62.56
2023-05-05T10:40:46.544Z,62.64
2023-05-05T10:41:48.525Z,62.85
2023-05-05T10:42:50.920Z,62.80
2023-05-05T10:43:57.276Z,62.17
2023-05-05T10:44:58.993Z,61.24
2023-05-05T10:46:01.412Z,60.96
2023-05-05T10:47:03.960Z,61.00
2023-05-05T10:48:12.855Z,60.75
2023-05-05T10:49:28.800Z,61.82
2023-05-05T10:50:35.959Z,61.21
2023-05-05T10:51:49.733Z,61.17
2023-05-05T10:53:01.023Z,61.55
2023-05-05T10:54:24.660Z,60.92
2023-05-05T10:55:46.408Z,60.78
2023-05-05T10:56:48.789Z,61.57
2023-05-05T10:57:53.638Z,61.39
2023-05-05T10:59:00.335Z,61.35
2023-05-05T11:00:04.321Z,61.57
2023-05-05T11:01:06.941Z,62.24
2023-05-05T11:02:28.493Z,62.15
2023-05-05T11:03:30.606Z,62.09
2023-05-05T11:04:32.723Z,61.99
2023-05-05T11:05:34.554Z,62.09
2023-05-05T11:06:36.263Z,62.04
2023-05-05T11:07:38.670Z,61.59
2023-05-05T11:08:42.584Z,61.65
2023-05-05T11:10:03.854Z,61.35
2023-05-05T11:11:05.932Z,61.25
2023-05-05T11:12:08.530Z,61.26
2023-05-05T11:13:10.374Z,60.91
2023-05-05T11:14:24.173Z,60.57
2023-05-05T11:15:28.969Z,61.08
2023-05-05T11:16:50.186Z,61.03
2023-05-05T11:17:52.789Z,60.44
2023-05-05T11:18:54.623Z,59.80
2023-05-05T11:19:56.526Z,59.68
2023-05-05T11:20:58.008Z,60.08
2023-05-05T11:22:01.767Z,60.34
2023-05-05T11:23:03.566Z,60.05
2023-05-05T11:24:36.401Z,60.28
2023-05-05T11:25:41.037Z,59.41
2023-05-05T11:26:51.388Z,59.28
2023-05-05T11:28:10.502Z,59.43
2023-05-05T11:29:12.327Z,59.84
2023-05-05T11:30:15.107Z,60.03
2023-05-05T11:31:17.913Z,59.78
2023-05-05T11:32:19.986Z,60.39
2023-05-05T11:33:30.837Z,60.08
2023-05-05T11:34:32.663Z,59.66
2023-05-05T11:35:56.350Z,58.81
2023-05-05T11:37:03.412Z,59.47
2023-05-05T11:38:08.501Z,59.70
2023-05-05T11:39:28.676Z,59.11
2023-05-05T11:40:35.310Z,59.25
2023-05-05T11:41:58.623Z,59.28
2023-05-05T11:43:07.425Z,58.40
2023-05-05T11:44:08.885Z,58.42
2023-05-05T11:45:24.558Z,58.60
2023-05-05T11:46:26.258Z,58.63
2023-05-05T11:47:29.627Z,58.87
2023-05-05T11:48:32.073Z,58.96
2023-05-05T11:49:36.185Z,58.92
2023-05-05T11:50:37.890Z,59.51
2023-05-05T11:51:39.994Z,59.52
2023-05-05T11:52:41.643Z,59.23
2023-05-05T11:53:44.772Z,59.21
2023-05-05T11:54:48.931Z,59.39
2023-05-05T11:56:06.422Z,59.30
2023-05-05T11:57:08.964Z,59.50
2023-05-05T11:58:20.604Z,59.14
2023-05-05T11:59:22.754Z,59.04
2023-05-05T12:00:33.906Z,58.97
2023-05-05T12:01:39.829Z,59.43
2023-05-05T12:02:43.908Z,59.65
2023-05-05T12:03:46.524Z,58.81
2023-05-05T12:04:49.474Z,58.82
2023-05-05T12:05:55.073Z,58.96
2023-05-05T12:06:57.682Z,58.90
2023-05-05T12:07:59.901Z,58.95
2023-05-05T12:09:01.669Z,58.75
2023-05-05T12:10:03.599Z,59.70
2023-05-05T12:11:07.887Z,59.42
2023-05-05T12:12:09.718Z,59.76
2023-05-05T12:13:21.149Z,60.21
2023-05-05T12:14:24.713Z,60.14
2023-05-05T12:15:30.786Z,59.42
2023-05-05T12:16:32.913Z,59.84
2023-05-05T12:17:44.994Z,59.63
2023-05-05T12:18:46.749Z,59.59
2023-05-05T12:19:55.344Z,59.72
2023-05-05T12:20:56.921Z,59.94
2023-05-05T12:22:02.586Z,60.03
2023-05-05T12:23:04.910Z,59.97
2023-05-05T12:24:07.043Z,59.84
2023-05-05T12:25:09.625Z,59.96
2023-05-05T12:26:31.748Z,59.76
2023-05-05T12:27:35.230Z,59.97
2023-05-05T12:28:46.537Z,60.23
2023-05-05T12:29:48.548Z,60.72
2023-05-05T12:30:57.733Z,60.76
2023-05-05T12:32:00.518Z,60.30
2023-05-05T12:33:06.490Z,60.39
2023-05-05T12:34:09.696Z,60.27
2023-05-05T12:35:12.245Z,60.22
2023-05-05T12:36:15.254Z,60.51
2023-05-05T12:37:19.504Z,60.83
2023-05-05T12:38:21.534Z,60.55
2023-05-05T12:39:23.233Z,60.38
2023-05-05T12:40:51.825Z,60.61
2023-05-05T12:42:03.164Z,60.95
2023-05-05T12:43:04.845Z,61.16
2023-05-05T12:44:06.722Z,61.33
2023-05-05T12:45:17.501Z,60.99
2023-05-05T12:46:20.097Z,61.62
2023-05-05T12:47:32.323Z,61.94
2023-05-05T12:48:38.507Z,61.94
2023-05-05T12:49:46.843Z,62.46
2023-05-05T12:50:48.607Z,62.47
2023-05-05T12:51:57.080Z,62.47
2023-05-05T12:52:58.827Z,62.18
2023-05-05T12:54:07.589Z,62.50
2023-05-05T12:55:10.424Z,62.72
2023-05-05T12:56:44.306Z,62.41
2023-05-05T12:58:04.709Z,62.61
2023-05-05T12:59:11.493Z,62.44
2023-05-05T13:00:16.051Z,62.43
2023-05-05T13:01:17.763Z,62.42
2023-05-05T13:02:20.830Z,62.53
2023-05-05T13:03:22.920Z,62.42
2023-05-05T13:04:26.398Z,62.76
2023-05-05T13:05:32.765Z,63.08
2023-05-05T13:06:37.808Z,62.80
2023-05-05T13:07:51.991Z,62.97
2023-05-05T13:08:53.907Z,63.21
2023-05-05T13:10:11.430Z,63.55
2023-05-05T13:11:13.023Z,63.54
2023-05-05T13:12:17.278Z,63.49
2023-05-05T13:13:19.060Z,63.61
2023-05-05T13:14:21.349Z,63.51
2023-05-05T13:15:23.687Z,63.71
2023-05-05T13:16:25.451Z,63.81
2023-05-05T13:17:27.194Z,63.99
2023-05-05T13:18:29.460Z,64.03
2023-05-05T13:19:31.073Z,63.85
2023-05-05T13:20:32.839Z,63.79
2023-05-05T13:21:34.805Z,63.90
2023-05-05T13:22:36.635Z,63.61
2023-05-05T13:23:38.442Z,63.35
2023-05-05T13:24:50.719Z,63.55
2023-05-05T13:25:53.810Z,63.48
2023-05-05T13:26:56.532Z,63.14
2023-05-05T13:27:58.542Z,63.29
2023-05-05T13:29:00.358Z,63.64
2023-05-05T13:30:02.119Z,64.34
2023-05-05T13:31:03.758Z,64.65
2023-05-05T13:32:05.524Z,65.31
2023-05-05T13:33:07.213Z,65.25
2023-05-05T13:34:08.906Z,65.44
2023-05-05T13:35:11.716Z,65.59
2023-05-05T13:36:14.977Z,65.16
2023-05-05T13:37:16.614Z,65.21
2023-05-05T13:38:18.377Z,65.70
2023-05-05T13:39:20.587Z,66.40
2023-05-05T13:40:24.521Z,67.10
2023-05-05T13:41:27.581Z,68.74
2023-05-05T13:42:29.555Z,67.83
2023-05-05T13:43:31.382Z,69.21
2023-05-05T13:44:33.041Z,68.46
2023-05-05T13:45:35.102Z,69.38
2023-05-05T13:46:36.789Z,68.91
2023-05-05T13:47:38.768Z,69.29
2023-05-05T13:48:40.766Z,68.63
2023-05-05T13:49:42.585Z,69.81
2023-05-05T13:50:44.424Z,70.02
2023-05-05T13:51:47.153Z,69.63
2023-05-05T13:52:49.041Z,69.27
2023-05-05T13:53:50.949Z,69.05
2023-05-05T13:54:53.356Z,69.41
2023-05-05T13:55:55.675Z,68.57
2023-05-05T13:56:57.962Z,68.89
2023-05-05T13:57:59.987Z,68.85